»·PEaware :: N727JR KLAS-KBUR

N727JR :: KLAS-KBUR

FLIGHT INFORMATION

Flight Status: Arrived
Operator: Privately registered:
United States
More flights under this callsign
Pilot: Salim S. (29683)
Aircraft: BOEING 727-200
(B722)
More flights by this aircraft type
Origin: KLAS McCarran Intl
United States
Destination: KBUR Bob Hope-Burbank
United States
More flights between these airports :: More routes between these airports
Route: +MCCRN5 HEC LYNXX8
File this flight plan on PilotEdge
Remarks:
Altitude:
(Current/Filed)
28,000ft
Speed:
(Current/Filed)
300kts
Departed: 19-Nov-20 01:29 PM
Arrived: 19-Nov-20 02:16 PM
Distance/Time
Traveled:
194nm/0:47
Distance/Time
To Go:
Arrived

Flight Plot

Page will automatically refresh every two minutes.

Flight plan parsing failed; only flown route is shown


Map Options




Map Legend


Flown Route
Filed Route
Departure Airport
Arrival Airport
Navaid (VOR, NDB)
Fix

Horizontal Profiles

Position Reports

Time Latitude Longitude Heading Altitude Ground
Speed
19-Nov-20 13:04 36.079888 -115.140513 62 2081ft 0kts
19-Nov-20 13:05 36.079888 -115.140513 62 2081ft 0kts
19-Nov-20 13:06 36.079888 -115.140513 62 2081ft 0kts
19-Nov-20 13:07 36.079888 -115.140513 62 2081ft 0kts
19-Nov-20 13:07 36.079888 -115.140513 62 2081ft 0kts
19-Nov-20 13:09 36.079888 -115.140513 62 2081ft 0kts
19-Nov-20 13:09 36.079888 -115.140513 62 2081ft 0kts
19-Nov-20 13:11 36.079888 -115.140513 62 2081ft 0kts
19-Nov-20 13:11 36.079888 -115.140513 62 2081ft 0kts
19-Nov-20 13:13 36.079888 -115.140513 62 2081ft 0kts
19-Nov-20 13:13 36.079888 -115.140513 62 2081ft 0kts
19-Nov-20 13:14 36.079888 -115.140513 62 2081ft 0kts
19-Nov-20 13:15 36.079888 -115.140513 62 2081ft 0kts
19-Nov-20 13:16 36.079888 -115.140513 62 2081ft 0kts
19-Nov-20 13:17 36.079888 -115.140513 62 2081ft 0kts
19-Nov-20 13:19 36.079888 -115.140513 62 2081ft 0kts
19-Nov-20 13:19 36.079888 -115.140513 62 2081ft 0kts
19-Nov-20 13:20 36.079889 -115.140510 62 2081ft 0kts
19-Nov-20 13:21 36.078788 -115.139003 114 2079ft 21kts
19-Nov-20 13:22 36.078281 -115.130060 90 2053ft 31kts
19-Nov-20 13:23 36.077573 -115.121613 133 2041ft 0kts
19-Nov-20 13:24 36.077573 -115.121613 133 2041ft 0kts
19-Nov-20 13:25 36.077573 -115.121613 133 2041ft 0kts
19-Nov-20 13:26 36.077573 -115.121613 133 2041ft 0kts
19-Nov-20 13:27 36.076455 -115.121706 265 2042ft 11kts
19-Nov-20 13:28 36.076294 -115.161847 271 2716ft 164kts
19-Nov-20 13:29 36.076558 -115.225351 269 4276ft 224kts
19-Nov-20 13:30 36.031230 -115.275345 202 7291ft 251kts
19-Nov-20 13:31 35.965217 -115.305042 201 9720ft 253kts
19-Nov-20 13:32 35.895838 -115.336193 202 10307ft 283kts
19-Nov-20 13:33 35.820962 -115.370401 201 12908ft 303kts
19-Nov-20 13:34 35.739388 -115.405484 201 15234ft 325kts
19-Nov-20 13:35 35.650873 -115.442375 201 17499ft 342kts
19-Nov-20 13:36 35.559837 -115.479680 207 19691ft 348kts
19-Nov-20 13:37 35.480241 -115.548847 226 21303ft 358kts
19-Nov-20 13:38 35.410721 -115.636757 229 23164ft 362kts
19-Nov-20 13:39 35.343587 -115.724353 229 24682ft 369kts
19-Nov-20 13:40 35.272717 -115.816231 229 26125ft 375kts
19-Nov-20 13:41 35.200583 -115.909385 229 27477ft 378kts
19-Nov-20 13:42 35.128501 -116.004963 231 28194ft 394kts
19-Nov-20 13:43 35.053486 -116.109686 231 28206ft 425kts
19-Nov-20 13:44 34.974181 -116.221158 230 28215ft 441kts
19-Nov-20 13:45 34.892288 -116.334820 230 28220ft 450kts
19-Nov-20 13:46 34.809807 -116.451060 230 28210ft 458kts
19-Nov-20 13:47 34.767588 -116.592833 264 28211ft 463kts
19-Nov-20 13:48 34.759469 -116.749903 264 28212ft 469kts
19-Nov-20 13:49 34.751495 -116.909063 264 28089ft 471kts
19-Nov-20 13:50 34.742423 -117.060820 263 26853ft 432kts
19-Nov-20 13:51 34.728507 -117.202618 262 24765ft 417kts
19-Nov-20 13:52 34.713855 -117.340687 260 22373ft 409kts
19-Nov-20 13:53 34.694309 -117.475612 260 19976ft 402kts
19-Nov-20 13:54 34.674908 -117.608597 260 17576ft 397kts
19-Nov-20 13:55 34.657138 -117.739635 261 15184ft 392kts
19-Nov-20 13:56 34.645476 -117.867204 263 14004ft 356kts
19-Nov-20 13:57 34.636363 -117.976873 263 13936ft 299kts
19-Nov-20 13:58 34.628330 -118.073653 261 12921ft 280kts
19-Nov-20 13:59 34.606519 -118.163053 252 11572ft 272kts
19-Nov-20 14:00 34.586792 -118.248059 256 9574ft 258kts
19-Nov-20 14:01 34.568793 -118.332343 256 8289ft 257kts
19-Nov-20 14:02 34.551224 -118.412414 258 7978ft 238kts
19-Nov-20 14:03 34.537137 -118.490089 258 7975ft 235kts
19-Nov-20 14:04 34.518887 -118.564765 215 7963ft 231kts
19-Nov-20 14:05 34.460993 -118.596912 202 7118ft 234kts
19-Nov-20 14:06 34.401288 -118.626071 202 6100ft 226kts
19-Nov-20 14:07 34.343433 -118.654216 201 5995ft 223kts
19-Nov-20 14:08 34.286183 -118.681491 201 6005ft 221kts
19-Nov-20 14:09 34.228540 -118.687534 134 6008ft 230kts
19-Nov-20 14:10 34.199893 -118.618204 100 5252ft 237kts
19-Nov-20 14:11 34.200373 -118.541820 91 4012ft 202kts
19-Nov-20 14:12 34.198997 -118.476173 94 2426ft 175kts
19-Nov-20 14:13 34.198775 -118.426639 94 1632ft 135kts
19-Nov-20 14:14 34.198033 -118.381949 92 996ft 131kts
19-Nov-20 14:15 34.198500 -118.350855 321 703ft 16kts
19-Nov-20 14:16 34.198787 -118.352125 270 705ft 10kts
19-Nov-20 14:17 34.198815 -118.354560 270 713ft 9kts
19-Nov-20 14:18 34.199558 -118.358418 297 725ft 6kts
19-Nov-20 14:19 34.201067 -118.359730 322 734ft 8kts
19-Nov-20 14:20 34.201342 -118.359826 32 735ft 0kts
19-Nov-20 14:21 34.201342 -118.359826 32 735ft 0kts
19-Nov-20 14:22 34.201342 -118.359826 32 735ft 0kts
19-Nov-20 14:23 34.201342 -118.359826 32 735ft 0kts
19-Nov-20 14:24 34.201342 -118.359826 32 735ft 0kts
19-Nov-20 14:25 34.201342 -118.359826 32 735ft 0kts
19-Nov-20 14:26 34.201342 -118.359826 32 735ft 0kts

Navigation Log

Ident Type
Flight plan parsing failed, navigation log unavailable